CCM109C LFBO-LFKB
Flight info
| Callsign | CCM109C |
|---|---|
| Flight time | 1h 3m |
| Altitude | 35000 |
| Route | FINOT FJR PADKO RUBIT A3 NORKA |
| Aircraft | A320/M-SDE3FGHIRWY/LB1 |
Departure
| Time | 2026-05-06 19:54 |
|---|---|
| Airport | Toulouse-Blagnac Airport (LFBO) |
Arrival
| Time | 2026-05-06 20:58 |
|---|---|
| Airport | Bastia-Poretta International airport (LFKB) |
| Time | Latitude | Longitude | Altitude | Speed | Heading |
|---|---|---|---|---|---|
| 2026-05-06 19:34 | 43.62874 | 1.37420 | 489 ft | 0 kts | 51° |
| 2026-05-06 19:44 | 43.62864 | 1.37403 | 494 ft | 4 kts | 48° |
| 2026-05-06 19:44 | 43.62846 | 1.37376 | 490 ft | 4 kts | 52° |
| 2026-05-06 19:44 | 43.62834 | 1.37345 | 486 ft | 4 kts | 88° |
| 2026-05-06 19:45 | 43.62840 | 1.37316 | 489 ft | 2 kts | 142° |
| 2026-05-06 19:45 | 43.62841 | 1.37315 | 489 ft | 0 kts | 142° |
| 2026-05-06 19:48 | 43.62834 | 1.37322 | 488 ft | 6 kts | 142° |
| 2026-05-06 19:48 | 43.62786 | 1.37374 | 488 ft | 9 kts | 142° |
| 2026-05-06 19:49 | 43.62758 | 1.37401 | 494 ft | 7 kts | 146° |
| 2026-05-06 19:49 | 43.62689 | 1.37472 | 493 ft | 13 kts | 150° |
| 2026-05-06 19:49 | 43.62616 | 1.37440 | 486 ft | 11 kts | 230° |
| 2026-05-06 19:49 | 43.62565 | 1.37350 | 488 ft | 12 kts | 223° |
| 2026-05-06 19:50 | 43.62490 | 1.37370 | 490 ft | 11 kts | 143° |
| 2026-05-06 19:50 | 43.62433 | 1.37431 | 489 ft | 10 kts | 143° |
| 2026-05-06 19:50 | 43.62382 | 1.37484 | 490 ft | 10 kts | 143° |
| 2026-05-06 19:50 | 43.62292 | 1.37578 | 494 ft | 17 kts | 142° |
| 2026-05-06 19:51 | 43.62201 | 1.37672 | 490 ft | 15 kts | 142° |
| 2026-05-06 19:51 | 43.62121 | 1.37754 | 491 ft | 13 kts | 144° |
| 2026-05-06 19:51 | 43.62047 | 1.37830 | 494 ft | 13 kts | 143° |
| 2026-05-06 19:51 | 43.61967 | 1.37914 | 489 ft | 19 kts | 143° |
| 2026-05-06 19:52 | 43.61859 | 1.38026 | 492 ft | 19 kts | 143° |
| 2026-05-06 19:52 | 43.61761 | 1.38128 | 488 ft | 17 kts | 143° |
| 2026-05-06 19:52 | 43.61678 | 1.38172 | 494 ft | 11 kts | 186° |
| 2026-05-06 19:52 | 43.61638 | 1.38132 | 493 ft | 11 kts | 229° |
| 2026-05-06 19:53 | 43.61585 | 1.38038 | 488 ft | 14 kts | 237° |
| 2026-05-06 19:53 | 43.61615 | 1.37980 | 491 ft | 7 kts | 323° |
| 2026-05-06 19:53 | 43.61651 | 1.37934 | 491 ft | 8 kts | 321° |
| 2026-05-06 19:53 | 43.61743 | 1.37835 | 486 ft | 42 kts | 321° |
| 2026-05-06 19:54 | 43.62164 | 1.37398 | 495 ft | 106 kts | 322° |
| 2026-05-06 19:54 | 43.62901 | 1.36632 | 504 ft | 156 kts | 320° |
| 2026-05-06 19:54 | 43.63776 | 1.35746 | 1036 ft | 158 kts | 321° |
| 2026-05-06 19:54 | 43.64653 | 1.34816 | 1715 ft | 158 kts | 317° |
| 2026-05-06 19:55 | 43.65516 | 1.33861 | 2373 ft | 162 kts | 316° |
| 2026-05-06 19:55 | 43.66441 | 1.32822 | 2709 ft | 182 kts | 317° |
| 2026-05-06 19:55 | 43.67518 | 1.31752 | 3005 ft | 205 kts | 331° |
| 2026-05-06 19:55 | 43.69027 | 1.31522 | 3297 ft | 241 kts | 10° |
| 2026-05-06 19:56 | 43.70511 | 1.32815 | 3775 ft | 269 kts | 48° |
| 2026-05-06 19:56 | 43.71248 | 1.35237 | 4549 ft | 283 kts | 80° |
| 2026-05-06 19:56 | 43.71290 | 1.37974 | 5387 ft | 288 kts | 94° |
| 2026-05-06 19:56 | 43.71048 | 1.40737 | 6247 ft | 291 kts | 98° |
| 2026-05-06 19:57 | 43.70743 | 1.43511 | 7060 ft | 294 kts | 98° |
| 2026-05-06 19:57 | 43.70464 | 1.46323 | 7860 ft | 297 kts | 97° |
| 2026-05-06 19:57 | 43.70239 | 1.49180 | 8647 ft | 301 kts | 95° |
| 2026-05-06 19:57 | 43.70064 | 1.52086 | 9440 ft | 305 kts | 94° |
| 2026-05-06 19:58 | 43.69924 | 1.55026 | 10201 ft | 309 kts | 93° |
| 2026-05-06 19:58 | 43.69799 | 1.58086 | 10483 ft | 331 kts | 93° |
| 2026-05-06 19:58 | 43.69676 | 1.61361 | 10760 ft | 350 kts | 92° |
| 2026-05-06 19:58 | 43.69548 | 1.64764 | 11355 ft | 357 kts | 93° |
| 2026-05-06 19:59 | 43.69416 | 1.68207 | 12053 ft | 361 kts | 93° |
| 2026-05-06 19:59 | 43.69279 | 1.71691 | 12767 ft | 364 kts | 93° |
| 2026-05-06 19:59 | 43.69137 | 1.75202 | 13466 ft | 368 kts | 93° |
| 2026-05-06 19:59 | 43.68992 | 1.78747 | 14119 ft | 371 kts | 93° |
| 2026-05-06 20:00 | 43.68845 | 1.82329 | 14726 ft | 374 kts | 93° |
| 2026-05-06 20:00 | 43.68696 | 1.85888 | 15319 ft | 378 kts | 93° |
| 2026-05-06 20:00 | 43.68541 | 1.89530 | 15920 ft | 382 kts | 93° |
| 2026-05-06 20:00 | 43.68385 | 1.93212 | 16503 ft | 385 kts | 93° |
| 2026-05-06 20:01 | 43.68224 | 1.96926 | 17076 ft | 389 kts | 93° |
| 2026-05-06 20:01 | 43.68061 | 2.00673 | 17667 ft | 393 kts | 93° |
| 2026-05-06 20:01 | 43.67894 | 2.04453 | 18249 ft | 396 kts | 93° |
| 2026-05-06 20:01 | 43.67727 | 2.08273 | 18764 ft | 399 kts | 93° |
| 2026-05-06 20:02 | 43.67559 | 2.12114 | 19276 ft | 402 kts | 93° |
| 2026-05-06 20:02 | 43.67390 | 2.15991 | 19805 ft | 405 kts | 93° |
| 2026-05-06 20:02 | 43.67216 | 2.19886 | 20335 ft | 408 kts | 93° |
| 2026-05-06 20:02 | 43.67037 | 2.23808 | 20856 ft | 411 kts | 93° |
| 2026-05-06 20:03 | 43.66854 | 2.27758 | 21372 ft | 414 kts | 93° |
| 2026-05-06 20:03 | 43.66671 | 2.31743 | 21888 ft | 417 kts | 93° |
| 2026-05-06 20:03 | 43.66487 | 2.35751 | 22391 ft | 420 kts | 93° |
| 2026-05-06 20:03 | 43.66301 | 2.39798 | 22886 ft | 423 kts | 93° |
| 2026-05-06 20:04 | 43.66112 | 2.43867 | 23357 ft | 426 kts | 93° |
| 2026-05-06 20:04 | 43.65918 | 2.47965 | 23771 ft | 429 kts | 94° |
| 2026-05-06 20:04 | 43.65721 | 2.52036 | 24153 ft | 432 kts | 94° |
| 2026-05-06 20:04 | 43.65519 | 2.56196 | 24528 ft | 435 kts | 94° |
| 2026-05-06 20:05 | 43.65316 | 2.60373 | 24887 ft | 437 kts | 94° |
| 2026-05-06 20:05 | 43.65114 | 2.64575 | 25248 ft | 440 kts | 94° |
| 2026-05-06 20:05 | 43.64911 | 2.68802 | 25602 ft | 443 kts | 94° |
| 2026-05-06 20:05 | 43.64702 | 2.73066 | 25868 ft | 448 kts | 95° |
| 2026-05-06 20:06 | 43.64487 | 2.77375 | 26173 ft | 451 kts | 95° |
| 2026-05-06 20:06 | 43.64267 | 2.81711 | 26508 ft | 453 kts | 95° |
| 2026-05-06 20:06 | 43.64044 | 2.86069 | 26840 ft | 456 kts | 95° |
| 2026-05-06 20:06 | 43.63818 | 2.90451 | 27156 ft | 458 kts | 95° |
| 2026-05-06 20:07 | 43.63590 | 2.94848 | 27477 ft | 461 kts | 95° |
| 2026-05-06 20:07 | 43.63362 | 2.99276 | 27783 ft | 463 kts | 95° |
| 2026-05-06 20:07 | 43.63131 | 3.03717 | 28061 ft | 465 kts | 95° |
| 2026-05-06 20:07 | 43.62897 | 3.08181 | 28357 ft | 468 kts | 96° |
| 2026-05-06 20:08 | 43.62664 | 3.12614 | 28661 ft | 469 kts | 96° |
| 2026-05-06 20:08 | 43.62426 | 3.17126 | 28959 ft | 472 kts | 96° |
| 2026-05-06 20:08 | 43.62185 | 3.21649 | 29238 ft | 474 kts | 96° |
| 2026-05-06 20:08 | 43.61940 | 3.26194 | 29511 ft | 476 kts | 96° |
| 2026-05-06 20:09 | 43.61693 | 3.30759 | 29767 ft | 478 kts | 96° |
| 2026-05-06 20:09 | 43.61443 | 3.35341 | 30018 ft | 480 kts | 96° |
| 2026-05-06 20:09 | 43.61187 | 3.39942 | 30226 ft | 482 kts | 96° |
| 2026-05-06 20:09 | 43.60925 | 3.44562 | 30426 ft | 484 kts | 96° |
| 2026-05-06 20:10 | 43.60662 | 3.49201 | 30615 ft | 486 kts | 96° |
| 2026-05-06 20:10 | 43.60397 | 3.53857 | 30804 ft | 488 kts | 96° |
| 2026-05-06 20:10 | 43.60129 | 3.58539 | 31007 ft | 489 kts | 96° |
| 2026-05-06 20:10 | 43.59862 | 3.63224 | 31288 ft | 489 kts | 96° |
| 2026-05-06 20:11 | 43.59595 | 3.67890 | 31552 ft | 489 kts | 96° |
| 2026-05-06 20:11 | 43.59322 | 3.72576 | 31795 ft | 489 kts | 97° |
| 2026-05-06 20:11 | 43.59045 | 3.77253 | 32072 ft | 489 kts | 97° |
| 2026-05-06 20:11 | 43.58766 | 3.81941 | 32324 ft | 490 kts | 97° |
| 2026-05-06 20:12 | 43.58484 | 3.86631 | 32527 ft | 492 kts | 97° |
| 2026-05-06 20:12 | 43.58200 | 3.91341 | 32746 ft | 492 kts | 97° |
| 2026-05-06 20:12 | 43.57840 | 3.96031 | 32994 ft | 491 kts | 103° |
| 2026-05-06 20:12 | 43.57077 | 4.00529 | 33236 ft | 487 kts | 111° |
| 2026-05-06 20:13 | 43.55989 | 4.04938 | 33461 ft | 486 kts | 113° |
| 2026-05-06 20:13 | 43.54886 | 4.09343 | 33663 ft | 487 kts | 114° |
| 2026-05-06 20:13 | 43.53783 | 4.13760 | 33874 ft | 488 kts | 114° |
| 2026-05-06 20:13 | 43.52678 | 4.18191 | 34092 ft | 488 kts | 114° |
| 2026-05-06 20:14 | 43.51573 | 4.22611 | 34289 ft | 488 kts | 114° |
| 2026-05-06 20:14 | 43.50466 | 4.27026 | 34507 ft | 487 kts | 114° |
| 2026-05-06 20:14 | 43.49359 | 4.31434 | 34733 ft | 487 kts | 114° |
| 2026-05-06 20:14 | 43.48251 | 4.35836 | 34905 ft | 487 kts | 114° |
| 2026-05-06 20:15 | 43.46045 | 4.44591 | 34937 ft | 481 kts | 114° |
| 2026-05-06 20:15 | 43.43844 | 4.53272 | 34943 ft | 480 kts | 114° |
| 2026-05-06 20:16 | 43.41635 | 4.61940 | 34944 ft | 479 kts | 114° |
| 2026-05-06 20:16 | 43.39428 | 4.70583 | 34962 ft | 479 kts | 114° |
| 2026-05-06 20:17 | 43.37221 | 4.79161 | 34967 ft | 479 kts | 114° |
| 2026-05-06 20:17 | 43.35006 | 4.87790 | 34956 ft | 478 kts | 114° |
| 2026-05-06 20:18 | 43.32791 | 4.96406 | 34942 ft | 478 kts | 114° |
| 2026-05-06 20:18 | 43.30562 | 5.05017 | 34941 ft | 479 kts | 115° |
| 2026-05-06 20:19 | 43.28316 | 5.13621 | 34950 ft | 479 kts | 115° |
| 2026-05-06 20:19 | 43.26069 | 5.22224 | 34952 ft | 479 kts | 115° |
| 2026-05-06 20:20 | 43.23897 | 5.30864 | 34954 ft | 482 kts | 109° |
| 2026-05-06 20:20 | 43.23127 | 5.40049 | 34940 ft | 490 kts | 93° |
| 2026-05-06 20:21 | 43.23103 | 5.49400 | 34949 ft | 490 kts | 94° |
| 2026-05-06 20:21 | 43.23043 | 5.58754 | 34952 ft | 490 kts | 94° |
| 2026-05-06 20:22 | 43.22975 | 5.68104 | 34943 ft | 491 kts | 94° |
| 2026-05-06 20:22 | 43.22910 | 5.77400 | 34932 ft | 490 kts | 94° |
| 2026-05-06 20:23 | 43.22838 | 5.86761 | 34941 ft | 490 kts | 94° |
| 2026-05-06 20:23 | 43.22750 | 5.96102 | 34946 ft | 490 kts | 94° |
| 2026-05-06 20:24 | 43.22657 | 6.05448 | 34958 ft | 490 kts | 94° |
| 2026-05-06 20:24 | 43.22557 | 6.14792 | 34937 ft | 490 kts | 95° |
| 2026-05-06 20:25 | 43.22445 | 6.24074 | 34944 ft | 490 kts | 95° |
| 2026-05-06 20:25 | 43.22325 | 6.33418 | 34931 ft | 490 kts | 95° |
| 2026-05-06 20:26 | 43.22196 | 6.42754 | 34934 ft | 490 kts | 95° |
| 2026-05-06 20:26 | 43.22069 | 6.52099 | 34917 ft | 490 kts | 95° |
| 2026-05-06 20:27 | 43.21810 | 6.61424 | 34915 ft | 486 kts | 102° |
| 2026-05-06 20:27 | 43.20794 | 6.70561 | 34922 ft | 485 kts | 104° |
| 2026-05-06 20:28 | 43.19771 | 6.79688 | 34922 ft | 485 kts | 104° |
| 2026-05-06 20:28 | 43.18743 | 6.88771 | 34901 ft | 485 kts | 104° |
| 2026-05-06 20:29 | 43.17693 | 6.97887 | 34915 ft | 484 kts | 104° |
| 2026-05-06 20:29 | 43.16636 | 7.07009 | 34919 ft | 485 kts | 104° |
| 2026-05-06 20:30 | 43.16103 | 7.11571 | 34791 ft | 486 kts | 104° |
| 2026-05-06 20:30 | 43.15038 | 7.20709 | 34314 ft | 486 kts | 104° |
| 2026-05-06 20:30 | 43.14505 | 7.25269 | 34023 ft | 484 kts | 105° |
| 2026-05-06 20:31 | 43.13971 | 7.29812 | 33340 ft | 483 kts | 105° |
| 2026-05-06 20:31 | 43.13438 | 7.34331 | 32757 ft | 479 kts | 105° |
| 2026-05-06 20:31 | 43.12905 | 7.38827 | 32164 ft | 476 kts | 105° |
| 2026-05-06 20:31 | 43.12374 | 7.43290 | 31576 ft | 474 kts | 105° |
| 2026-05-06 20:32 | 43.11844 | 7.47733 | 30994 ft | 472 kts | 105° |
| 2026-05-06 20:32 | 43.11317 | 7.52155 | 30419 ft | 470 kts | 105° |
| 2026-05-06 20:32 | 43.10787 | 7.56560 | 29805 ft | 468 kts | 106° |
| 2026-05-06 20:32 | 43.10262 | 7.60882 | 29204 ft | 465 kts | 106° |
| 2026-05-06 20:33 | 43.09734 | 7.65217 | 28676 ft | 460 kts | 106° |
| 2026-05-06 20:33 | 43.09207 | 7.69514 | 28131 ft | 456 kts | 106° |
| 2026-05-06 20:33 | 43.08679 | 7.73832 | 27599 ft | 452 kts | 106° |
| 2026-05-06 20:33 | 43.08171 | 7.78010 | 27095 ft | 449 kts | 106° |
| 2026-05-06 20:34 | 43.07654 | 7.82257 | 26577 ft | 445 kts | 106° |
| 2026-05-06 20:34 | 43.07145 | 7.86405 | 26082 ft | 441 kts | 106° |
| 2026-05-06 20:34 | 43.06642 | 7.90483 | 25585 ft | 438 kts | 105° |
| 2026-05-06 20:34 | 43.06134 | 7.94578 | 25086 ft | 436 kts | 105° |
| 2026-05-06 20:35 | 43.05626 | 7.98656 | 24554 ft | 433 kts | 105° |
| 2026-05-06 20:35 | 43.05121 | 8.02700 | 24065 ft | 431 kts | 105° |
| 2026-05-06 20:35 | 43.04617 | 8.06726 | 23532 ft | 429 kts | 105° |
| 2026-05-06 20:35 | 43.04110 | 8.10747 | 22953 ft | 428 kts | 105° |
| 2026-05-06 20:36 | 43.03608 | 8.14736 | 22471 ft | 424 kts | 105° |
| 2026-05-06 20:36 | 43.03110 | 8.18689 | 21918 ft | 422 kts | 105° |
| 2026-05-06 20:36 | 43.02611 | 8.22621 | 21442 ft | 419 kts | 105° |
| 2026-05-06 20:36 | 43.02114 | 8.26531 | 21036 ft | 414 kts | 105° |
| 2026-05-06 20:37 | 43.01621 | 8.30412 | 20469 ft | 414 kts | 104° |
| 2026-05-06 20:37 | 43.01140 | 8.34206 | 20109 ft | 408 kts | 104° |
| 2026-05-06 20:37 | 43.00656 | 8.38009 | 19577 ft | 403 kts | 104° |
| 2026-05-06 20:37 | 43.00178 | 8.41755 | 18847 ft | 396 kts | 104° |
| 2026-05-06 20:38 | 42.99710 | 8.45422 | 18370 ft | 390 kts | 104° |
| 2026-05-06 20:38 | 42.99248 | 8.49026 | 17849 ft | 379 kts | 104° |
| 2026-05-06 20:38 | 42.98800 | 8.52512 | 17402 ft | 366 kts | 104° |
| 2026-05-06 20:38 | 42.98355 | 8.55931 | 16955 ft | 365 kts | 104° |
| 2026-05-06 20:39 | 42.97907 | 8.59340 | 16516 ft | 364 kts | 104° |
| 2026-05-06 20:39 | 42.97459 | 8.62740 | 16076 ft | 363 kts | 104° |
| 2026-05-06 20:39 | 42.97010 | 8.66138 | 15634 ft | 363 kts | 104° |
| 2026-05-06 20:39 | 42.96563 | 8.69520 | 15199 ft | 362 kts | 103° |
| 2026-05-06 20:40 | 42.96119 | 8.72903 | 14754 ft | 361 kts | 103° |
| 2026-05-06 20:40 | 42.95663 | 8.76263 | 14326 ft | 359 kts | 107° |
| 2026-05-06 20:40 | 42.94852 | 8.79443 | 13895 ft | 352 kts | 120° |
| 2026-05-06 20:40 | 42.93588 | 8.82243 | 13565 ft | 342 kts | 131° |
| 2026-05-06 20:41 | 42.92644 | 8.83942 | 13367 ft | 338 kts | 131° |
| 2026-05-06 20:41 | 42.91244 | 8.86480 | 13065 ft | 332 kts | 131° |
| 2026-05-06 20:41 | 42.89874 | 8.88981 | 12760 ft | 326 kts | 131° |
| 2026-05-06 20:41 | 42.88524 | 8.91446 | 12458 ft | 322 kts | 131° |
| 2026-05-06 20:42 | 42.87190 | 8.93880 | 12166 ft | 320 kts | 130° |
| 2026-05-06 20:42 | 42.85857 | 8.96301 | 11886 ft | 319 kts | 130° |
| 2026-05-06 20:42 | 42.84527 | 8.98711 | 11597 ft | 318 kts | 130° |
| 2026-05-06 20:42 | 42.83199 | 9.01107 | 11306 ft | 316 kts | 130° |
| 2026-05-06 20:43 | 42.81876 | 9.03494 | 11022 ft | 315 kts | 130° |
| 2026-05-06 20:43 | 42.80557 | 9.05874 | 10723 ft | 314 kts | 130° |
| 2026-05-06 20:43 | 42.79248 | 9.08239 | 10452 ft | 313 kts | 130° |
| 2026-05-06 20:43 | 42.77939 | 9.10606 | 10158 ft | 312 kts | 130° |
| 2026-05-06 20:44 | 42.76650 | 9.12939 | 9958 ft | 303 kts | 130° |
| 2026-05-06 20:44 | 42.75395 | 9.15212 | 9733 ft | 296 kts | 130° |
| 2026-05-06 20:44 | 42.74158 | 9.17441 | 9525 ft | 295 kts | 130° |
| 2026-05-06 20:44 | 42.72923 | 9.19657 | 9250 ft | 293 kts | 130° |
| 2026-05-06 20:45 | 42.71691 | 9.21863 | 8973 ft | 292 kts | 130° |
| 2026-05-06 20:45 | 42.70485 | 9.24022 | 8694 ft | 290 kts | 130° |
| 2026-05-06 20:45 | 42.69268 | 9.26202 | 8417 ft | 289 kts | 130° |
| 2026-05-06 20:45 | 42.68057 | 9.28370 | 8140 ft | 287 kts | 130° |
| 2026-05-06 20:46 | 42.66852 | 9.30529 | 7858 ft | 286 kts | 130° |
| 2026-05-06 20:46 | 42.65649 | 9.32682 | 7593 ft | 285 kts | 130° |
| 2026-05-06 20:46 | 42.64456 | 9.34815 | 7323 ft | 283 kts | 130° |
| 2026-05-06 20:46 | 42.63271 | 9.36935 | 7046 ft | 281 kts | 129° |
| 2026-05-06 20:47 | 42.62090 | 9.39043 | 6795 ft | 280 kts | 129° |
| 2026-05-06 20:47 | 42.60916 | 9.41139 | 6547 ft | 279 kts | 129° |
| 2026-05-06 20:47 | 42.59741 | 9.43231 | 6242 ft | 276 kts | 129° |
| 2026-05-06 20:47 | 42.58573 | 9.45310 | 6011 ft | 276 kts | 129° |
| 2026-05-06 20:48 | 42.57318 | 9.47245 | 5623 ft | 271 kts | 141° |
| 2026-05-06 20:48 | 42.55794 | 9.48711 | 5219 ft | 266 kts | 153° |
| 2026-05-06 20:48 | 42.54184 | 9.49956 | 4810 ft | 266 kts | 152° |
| 2026-05-06 20:48 | 42.52587 | 9.51201 | 4430 ft | 263 kts | 152° |
| 2026-05-06 20:49 | 42.51049 | 9.52403 | 4209 ft | 253 kts | 152° |
| 2026-05-06 20:49 | 42.49562 | 9.53563 | 4083 ft | 240 kts | 152° |
| 2026-05-06 20:49 | 42.48149 | 9.54663 | 3955 ft | 228 kts | 152° |
| 2026-05-06 20:49 | 42.46807 | 9.55708 | 3830 ft | 218 kts | 152° |
| 2026-05-06 20:50 | 42.45513 | 9.56717 | 3613 ft | 213 kts | 152° |
| 2026-05-06 20:50 | 42.44229 | 9.57716 | 3406 ft | 213 kts | 151° |
| 2026-05-06 20:50 | 42.42940 | 9.58706 | 3287 ft | 214 kts | 152° |
| 2026-05-06 20:50 | 42.41641 | 9.59690 | 3162 ft | 214 kts | 152° |
| 2026-05-06 20:51 | 42.40338 | 9.60673 | 3033 ft | 213 kts | 151° |
| 2026-05-06 20:51 | 42.39062 | 9.61636 | 2908 ft | 208 kts | 151° |
| 2026-05-06 20:51 | 42.37752 | 9.62409 | 2789 ft | 205 kts | 172° |
| 2026-05-06 20:51 | 42.36373 | 9.62174 | 2668 ft | 198 kts | 206° |
| 2026-05-06 20:52 | 42.35371 | 9.61030 | 2530 ft | 183 kts | 239° |
| 2026-05-06 20:52 | 42.34972 | 9.59439 | 2448 ft | 176 kts | 270° |
| 2026-05-06 20:52 | 42.35179 | 9.57917 | 2385 ft | 155 kts | 298° |
| 2026-05-06 20:52 | 42.35807 | 9.56785 | 2392 ft | 149 kts | 322° |
| 2026-05-06 20:53 | 42.36693 | 9.56135 | 2387 ft | 145 kts | 344° |
| 2026-05-06 20:53 | 42.37643 | 9.55741 | 2399 ft | 143 kts | 343° |
| 2026-05-06 20:53 | 42.38593 | 9.55345 | 2407 ft | 142 kts | 343° |
| 2026-05-06 20:53 | 42.39540 | 9.54950 | 2399 ft | 144 kts | 343° |
| 2026-05-06 20:54 | 42.40494 | 9.54552 | 2408 ft | 142 kts | 343° |
| 2026-05-06 20:54 | 42.41446 | 9.54155 | 2408 ft | 143 kts | 343° |
| 2026-05-06 20:54 | 42.42404 | 9.53755 | 2367 ft | 144 kts | 343° |
| 2026-05-06 20:54 | 42.43352 | 9.53359 | 2258 ft | 141 kts | 343° |
| 2026-05-06 20:55 | 42.44278 | 9.52973 | 2082 ft | 138 kts | 343° |
| 2026-05-06 20:55 | 42.45186 | 9.52593 | 1908 ft | 136 kts | 343° |
| 2026-05-06 20:55 | 42.46093 | 9.52214 | 1731 ft | 136 kts | 344° |
| 2026-05-06 20:55 | 42.46990 | 9.51839 | 1545 ft | 135 kts | 344° |
| 2026-05-06 20:56 | 42.47888 | 9.51464 | 1363 ft | 135 kts | 343° |
| 2026-05-06 20:56 | 42.48788 | 9.51087 | 1180 ft | 135 kts | 343° |
| 2026-05-06 20:56 | 42.49682 | 9.50713 | 1004 ft | 134 kts | 343° |
| 2026-05-06 20:56 | 42.50575 | 9.50340 | 801 ft | 135 kts | 343° |
| 2026-05-06 20:57 | 42.51467 | 9.49966 | 659 ft | 134 kts | 342° |
| 2026-05-06 20:57 | 42.52356 | 9.49595 | 436 ft | 134 kts | 341° |
| 2026-05-06 20:57 | 42.53245 | 9.49224 | 319 ft | 135 kts | 341° |
| 2026-05-06 20:57 | 42.54148 | 9.48846 | 68 ft | 136 kts | 341° |
| 2026-05-06 20:58 | 42.54989 | 9.48489 | 37 ft | 107 kts | 342° |
| 2026-05-06 20:58 | 42.55530 | 9.48262 | 34 ft | 58 kts | 343° |
| 2026-05-06 20:58 | 42.55783 | 9.48156 | 27 ft | 26 kts | 343° |
| 2026-05-06 20:58 | 42.55907 | 9.48104 | 27 ft | 14 kts | 343° |
| 2026-05-06 20:59 | 42.55962 | 9.48007 | 25 ft | 14 kts | 264° |
| 2026-05-06 20:59 | 42.55928 | 9.47888 | 25 ft | 11 kts | 231° |
| 2026-05-06 20:59 | 42.55867 | 9.47868 | 26 ft | 8 kts | 165° |
| 2026-05-06 20:59 | 42.55820 | 9.47886 | 27 ft | 6 kts | 164° |
| 2026-05-06 21:00 | 42.55755 | 9.47913 | 28 ft | 14 kts | 162° |
| 2026-05-06 21:00 | 42.55665 | 9.47951 | 30 ft | 12 kts | 163° |
| 2026-05-06 21:00 | 42.55588 | 9.47984 | 32 ft | 15 kts | 163° |
| 2026-05-06 21:00 | 42.55462 | 9.48036 | 34 ft | 20 kts | 163° |
| 2026-05-06 21:01 | 42.55322 | 9.48094 | 34 ft | 22 kts | 162° |
| 2026-05-06 21:01 | 42.55193 | 9.48149 | 35 ft | 18 kts | 163° |
| 2026-05-06 21:01 | 42.55077 | 9.48197 | 35 ft | 17 kts | 162° |
| 2026-05-06 21:01 | 42.54981 | 9.48235 | 35 ft | 12 kts | 176° |
| 2026-05-06 21:02 | 42.54906 | 9.48247 | 35 ft | 9 kts | 162° |
| 2026-05-06 21:02 | 42.54851 | 9.48270 | 35 ft | 7 kts | 162° |
| 2026-05-06 21:02 | 42.54814 | 9.48283 | 35 ft | 3 kts | 179° |
| 2026-05-06 21:02 | 42.54814 | 9.48273 | 35 ft | 0 kts | 268° |
| 2026-05-06 21:03 | 42.54818 | 9.48236 | 35 ft | 5 kts | 283° |
| 2026-05-06 21:03 | 42.54826 | 9.48193 | 35 ft | 4 kts | 283° |
| 2026-05-06 21:03 | 42.54829 | 9.48175 | 35 ft | 1 kts | 283° |
| 2026-05-06 21:03 | 42.54829 | 9.48174 | 35 ft | 0 kts | 283° |